sensor_id;sensor_type;location;lat;lon;timestamp;pressure;altitude;pressure_sealevel;temperature
71205;BMP180;58935;54.498;18.544;2023-08-01T00:01:51;99219.60;;;17.30
71205;BMP180;58935;54.498;18.544;2023-08-01T00:04:16;99218.00;;;17.30
71205;BMP180;58935;54.498;18.544;2023-08-01T00:06:42;99210.20;;;17.30
71205;BMP180;58935;54.498;18.544;2023-08-01T00:09:07;99210.60;;;17.30
71205;BMP180;58935;54.498;18.544;2023-08-01T00:11:32;99207.40;;;17.30
71205;BMP180;58935;54.498;18.544;2023-08-01T00:13:58;99204.60;;;17.30
71205;BMP180;58935;54.498;18.544;2023-08-01T00:16:23;99193.20;;;17.30
71205;BMP180;58935;54.498;18.544;2023-08-01T00:18:49;99193.40;;;17.30
71205;BMP180;58935;54.498;18.544;2023-08-01T00:21:15;99191.60;;;17.30
71205;BMP180;58935;54.498;18.544;2023-08-01T00:23:40;99194.80;;;17.30
71205;BMP180;58935;54.498;18.544;2023-08-01T00:26:06;99190.20;;;17.30
71205;BMP180;58935;54.498;18.544;2023-08-01T00:28:31;99192.00;;;17.30
71205;BMP180;58935;54.498;18.544;2023-08-01T00:31:05;99187.00;;;17.30
71205;BMP180;58935;54.498;18.544;2023-08-01T00:33:31;99186.20;;;17.30
71205;BMP180;58935;54.498;18.544;2023-08-01T00:35:56;99193.60;;;17.30
71205;BMP180;58935;54.498;18.544;2023-08-01T00:38:21;99189.00;;;17.30
71205;BMP180;58935;54.498;18.544;2023-08-01T00:40:47;99187.00;;;17.30
71205;BMP180;58935;54.498;18.544;2023-08-01T00:43:12;99187.00;;;17.30
71205;BMP180;58935;54.498;18.544;2023-08-01T00:45:38;99180.80;;;17.30
71205;BMP180;58935;54.498;18.544;2023-08-01T00:48:03;99187.00;;;17.30
71205;BMP180;58935;54.498;18.544;2023-08-01T00:50:29;99188.80;;;17.30
71205;BMP180;58935;54.498;18.544;2023-08-01T00:52:54;99182.00;;;17.30
71205;BMP180;58935;54.498;18.544;2023-08-01T00:55:22;99178.80;;;17.30
71205;BMP180;58935;54.498;18.544;2023-08-01T00:57:48;99174.80;;;17.30
71205;BMP180;58935;54.498;18.544;2023-08-01T01:00:14;99174.20;;;17.30
71205;BMP180;58935;54.498;18.544;2023-08-01T01:02:40;99172.80;;;17.30
71205;BMP180;58935;54.498;18.544;2023-08-01T01:05:06;99170.60;;;17.30
71205;BMP180;58935;54.498;18.544;2023-08-01T01:07:32;99168.40;;;17.30
71205;BMP180;58935;54.498;18.544;2023-08-01T01:09:58;99170.80;;;17.30
71205;BMP180;58935;54.498;18.544;2023-08-01T01:12:24;99164.40;;;17.30
71205;BMP180;58935;54.498;18.544;2023-08-01T01:14:49;99161.80;;;17.30
71205;BMP180;58935;54.498;18.544;2023-08-01T01:17:15;99154.40;;;17.34
71205;BMP180;58935;54.498;18.544;2023-08-01T01:19:40;99151.20;;;17.34
71205;BMP180;58935;54.498;18.544;2023-08-01T01:22:09;99148.40;;;17.36
71205;BMP180;58935;54.498;18.544;2023-08-01T01:24:37;99152.80;;;17.40
71205;BMP180;58935;54.498;18.544;2023-08-01T01:27:04;99151.80;;;17.40
71205;BMP180;58935;54.498;18.544;2023-08-01T01:29:32;99139.40;;;17.40
71205;BMP180;58935;54.498;18.544;2023-08-01T01:32:00;99138.00;;;17.40
71205;BMP180;58935;54.498;18.544;2023-08-01T01:34:28;99137.20;;;17.40
71205;BMP180;58935;54.498;18.544;2023-08-01T01:36:54;99132.80;;;17.40
71205;BMP180;58935;54.498;18.544;2023-08-01T01:39:20;99127.20;;;17.40
71205;BMP180;58935;54.498;18.544;2023-08-01T01:41:45;99129.00;;;17.40
71205;BMP180;58935;54.498;18.544;2023-08-01T01:44:11;99124.00;;;17.40
71205;BMP180;58935;54.498;18.544;2023-08-01T01:46:36;99122.60;;;17.42
71205;BMP180;58935;54.498;18.544;2023-08-01T01:49:02;99120.20;;;17.42
71205;BMP180;58935;54.498;18.544;2023-08-01T01:51:30;99117.00;;;17.48
71205;BMP180;58935;54.498;18.544;2023-08-01T01:53:55;99120.80;;;17.48
71205;BMP180;58935;54.498;18.544;2023-08-01T01:56:21;99114.60;;;17.50
71205;BMP180;58935;54.498;18.544;2023-08-01T01:58:46;99109.40;;;17.48
71205;BMP180;58935;54.498;18.544;2023-08-01T02:01:12;99102.80;;;17.50
71205;BMP180;58935;54.498;18.544;2023-08-01T02:03:37;99099.60;;;17.50
71205;BMP180;58935;54.498;18.544;2023-08-01T02:06:03;99102.00;;;17.50
71205;BMP180;58935;54.498;18.544;2023-08-01T02:08:30;99101.40;;;17.46
71205;BMP180;58935;54.498;18.544;2023-08-01T02:10:55;99100.00;;;17.50
71205;BMP180;58935;54.498;18.544;2023-08-01T02:13:25;99090.40;;;17.46
71205;BMP180;58935;54.498;18.544;2023-08-01T02:15:51;99094.40;;;17.40
71205;BMP180;58935;54.498;18.544;2023-08-01T02:18:16;99097.00;;;17.40
71205;BMP180;58935;54.498;18.544;2023-08-01T02:20:41;99099.00;;;17.40
71205;BMP180;58935;54.498;18.544;2023-08-01T02:23:07;99094.80;;;17.40
71205;BMP180;58935;54.498;18.544;2023-08-01T02:25:39;99089.80;;;17.40
71205;BMP180;58935;54.498;18.544;2023-08-01T02:28:05;99093.60;;;17.40
71205;BMP180;58935;54.498;18.544;2023-08-01T02:30:31;99085.40;;;17.40
71205;BMP180;58935;54.498;18.544;2023-08-01T02:32:56;99083.20;;;17.40
71205;BMP180;58935;54.498;18.544;2023-08-01T02:35:22;99081.00;;;17.40
71205;BMP180;58935;54.498;18.544;2023-08-01T02:37:47;99079.80;;;17.40
71205;BMP180;58935;54.498;18.544;2023-08-01T02:40:12;99084.00;;;17.40
71205;BMP180;58935;54.498;18.544;2023-08-01T02:42:37;99082.40;;;17.40
71205;BMP180;58935;54.498;18.544;2023-08-01T02:45:04;99074.20;;;17.40
71205;BMP180;58935;54.498;18.544;2023-08-01T02:47:29;99070.80;;;17.40
71205;BMP180;58935;54.498;18.544;2023-08-01T02:49:54;99073.60;;;17.40
71205;BMP180;58935;54.498;18.544;2023-08-01T02:52:20;99071.80;;;17.40
71205;BMP180;58935;54.498;18.544;2023-08-01T02:54:45;99067.60;;;17.40
71205;BMP180;58935;54.498;18.544;2023-08-01T02:57:10;99062.40;;;17.40
71205;BMP180;58935;54.498;18.544;2023-08-01T02:59:36;99060.00;;;17.40
71205;BMP180;58935;54.498;18.544;2023-08-01T03:02:02;99062.40;;;17.40
71205;BMP180;58935;54.498;18.544;2023-08-01T03:04:27;99052.80;;;17.40
71205;BMP180;58935;54.498;18.544;2023-08-01T03:06:52;99054.00;;;17.40
71205;BMP180;58935;54.498;18.544;2023-08-01T03:09:18;99053.60;;;17.40
71205;BMP180;58935;54.498;18.544;2023-08-01T03:11:43;99045.00;;;17.40
71205;BMP180;58935;54.498;18.544;2023-08-01T03:14:08;99040.80;;;17.40
71205;BMP180;58935;54.498;18.544;2023-08-01T03:16:34;99041.80;;;17.40
71205;BMP180;58935;54.498;18.544;2023-08-01T03:18:59;99038.60;;;17.40
71205;BMP180;58935;54.498;18.544;2023-08-01T03:21:33;99040.40;;;17.40
71205;BMP180;58935;54.498;18.544;2023-08-01T03:24:01;99040.60;;;17.40
71205;BMP180;58935;54.498;18.544;2023-08-01T03:26:26;99042.80;;;17.40
71205;BMP180;58935;54.498;18.544;2023-08-01T03:28:55;99041.40;;;17.40
71205;BMP180;58935;54.498;18.544;2023-08-01T03:31:22;99043.60;;;17.42
71205;BMP180;58935;54.498;18.544;2023-08-01T03:33:48;99045.80;;;17.48
71205;BMP180;58935;54.498;18.544;2023-08-01T03:36:13;99032.00;;;17.50
71205;BMP180;58935;54.498;18.544;2023-08-01T03:38:39;99040.20;;;17.50
71205;BMP180;58935;54.498;18.544;2023-08-01T03:41:05;99035.60;;;17.50
71205;BMP180;58935;54.498;18.544;2023-08-01T03:43:30;99026.80;;;17.50
71205;BMP180;58935;54.498;18.544;2023-08-01T03:45:56;99028.00;;;17.50
71205;BMP180;58935;54.498;18.544;2023-08-01T03:48:21;99032.20;;;17.50
71205;BMP180;58935;54.498;18.544;2023-08-01T03:50:47;99029.40;;;17.50
71205;BMP180;58935;54.498;18.544;2023-08-01T03:53:13;99025.20;;;17.50
71205;BMP180;58935;54.498;18.544;2023-08-01T03:55:38;99022.60;;;17.54
71205;BMP180;58935;54.498;18.544;2023-08-01T03:58:03;99019.80;;;17.58
71205;BMP180;58935;54.498;18.544;2023-08-01T04:00:29;99015.80;;;17.60
71205;BMP180;58935;54.498;18.544;2023-08-01T04:02:58;99018.80;;;17.60
71205;BMP180;58935;54.498;18.544;2023-08-01T04:05:24;99010.80;;;17.60
71205;BMP180;58935;54.498;18.544;2023-08-01T04:07:50;99012.40;;;17.60
71205;BMP180;58935;54.498;18.544;2023-08-01T04:10:15;99007.80;;;17.60
71205;BMP180;58935;54.498;18.544;2023-08-01T04:12:41;99012.80;;;17.60
71205;BMP180;58935;54.498;18.544;2023-08-01T04:15:09;99011.80;;;17.60
71205;BMP180;58935;54.498;18.544;2023-08-01T04:17:34;99012.00;;;17.60
71205;BMP180;58935;54.498;18.544;2023-08-01T04:19:59;99014.60;;;17.60
71205;BMP180;58935;54.498;18.544;2023-08-01T04:22:25;99016.20;;;17.60
71205;BMP180;58935;54.498;18.544;2023-08-01T04:24:50;99010.80;;;17.64
71205;BMP180;58935;54.498;18.544;2023-08-01T04:27:16;99005.00;;;17.68
71205;BMP180;58935;54.498;18.544;2023-08-01T04:29:41;99004.20;;;17.70
71205;BMP180;58935;54.498;18.544;2023-08-01T04:32:07;98999.80;;;17.70
71205;BMP180;58935;54.498;18.544;2023-08-01T04:34:33;98996.40;;;17.70
71205;BMP180;58935;54.498;18.544;2023-08-01T04:36:58;98991.80;;;17.70
71205;BMP180;58935;54.498;18.544;2023-08-01T04:39:24;98995.60;;;17.70
71205;BMP180;58935;54.498;18.544;2023-08-01T04:41:49;98995.20;;;17.70
71205;BMP180;58935;54.498;18.544;2023-08-01T04:44:15;98999.00;;;17.70
71205;BMP180;58935;54.498;18.544;2023-08-01T04:46:41;98991.20;;;17.70
71205;BMP180;58935;54.498;18.544;2023-08-01T04:49:07;98996.00;;;17.70
71205;BMP180;58935;54.498;18.544;2023-08-01T04:51:32;98999.40;;;17.70
71205;BMP180;58935;54.498;18.544;2023-08-01T04:53:57;99000.40;;;17.70
71205;BMP180;58935;54.498;18.544;2023-08-01T04:56:23;99002.60;;;17.70
71205;BMP180;58935;54.498;18.544;2023-08-01T04:58:48;98996.60;;;17.70
71205;BMP180;58935;54.498;18.544;2023-08-01T05:01:13;98989.40;;;17.80
71205;BMP180;58935;54.498;18.544;2023-08-01T05:03:39;98992.40;;;17.80
71205;BMP180;58935;54.498;18.544;2023-08-01T05:06:04;98986.20;;;17.80
71205;BMP180;58935;54.498;18.544;2023-08-01T05:08:29;98988.60;;;17.84
71205;BMP180;58935;54.498;18.544;2023-08-01T05:10:55;98990.80;;;17.90
71205;BMP180;58935;54.498;18.544;2023-08-01T05:13:20;98987.00;;;17.90
71205;BMP180;58935;54.498;18.544;2023-08-01T05:19:27;98978.00;;;18.00
71205;BMP180;58935;54.498;18.544;2023-08-01T05:21:52;98978.40;;;18.00
71205;BMP180;58935;54.498;18.544;2023-08-01T05:24:17;98975.00;;;18.02
71205;BMP180;58935;54.498;18.544;2023-08-01T05:26:43;98978.80;;;18.10
71205;BMP180;58935;54.498;18.544;2023-08-01T05:29:08;98976.40;;;18.10
71205;BMP180;58935;54.498;18.544;2023-08-01T05:31:33;98964.00;;;18.10
71205;BMP180;58935;54.498;18.544;2023-08-01T05:33:59;98969.60;;;18.10
71205;BMP180;58935;54.498;18.544;2023-08-01T05:36:24;98969.20;;;18.10
71205;BMP180;58935;54.498;18.544;2023-08-01T05:38:49;98967.40;;;18.10
71205;BMP180;58935;54.498;18.544;2023-08-01T05:41:15;98967.00;;;18.10
71205;BMP180;58935;54.498;18.544;2023-08-01T05:43:40;98962.40;;;18.10
71205;BMP180;58935;54.498;18.544;2023-08-01T05:46:06;98966.20;;;18.10
71205;BMP180;58935;54.498;18.544;2023-08-01T05:48:31;98966.80;;;18.16
71205;BMP180;58935;54.498;18.544;2023-08-01T05:50:56;98957.00;;;18.18
71205;BMP180;58935;54.498;18.544;2023-08-01T05:53:23;98965.60;;;18.20
71205;BMP180;58935;54.498;18.544;2023-08-01T05:55:49;98966.60;;;18.20
71205;BMP180;58935;54.498;18.544;2023-08-01T05:58:15;98965.20;;;18.20
71205;BMP180;58935;54.498;18.544;2023-08-01T06:00:41;98963.20;;;18.26
71205;BMP180;58935;54.498;18.544;2023-08-01T06:03:06;98961.60;;;18.30
71205;BMP180;58935;54.498;18.544;2023-08-01T06:05:32;98961.20;;;18.30
71205;BMP180;58935;54.498;18.544;2023-08-01T06:07:57;98964.00;;;18.30
71205;BMP180;58935;54.498;18.544;2023-08-01T06:10:22;98960.20;;;18.30
71205;BMP180;58935;54.498;18.544;2023-08-01T06:12:48;98963.20;;;18.30
71205;BMP180;58935;54.498;18.544;2023-08-01T06:15:13;98963.80;;;18.38
71205;BMP180;58935;54.498;18.544;2023-08-01T06:17:38;98959.80;;;18.40
71205;BMP180;58935;54.498;18.544;2023-08-01T06:20:05;98960.60;;;18.40
71205;BMP180;58935;54.498;18.544;2023-08-01T06:22:31;98958.60;;;18.40
71205;BMP180;58935;54.498;18.544;2023-08-01T06:24:56;98949.40;;;18.44
71205;BMP180;58935;54.498;18.544;2023-08-01T06:27:22;98945.20;;;18.50
71205;BMP180;58935;54.498;18.544;2023-08-01T06:29:47;98941.40;;;18.50
71205;BMP180;58935;54.498;18.544;2023-08-01T06:32:12;98951.20;;;18.50
71205;BMP180;58935;54.498;18.544;2023-08-01T06:34:38;98952.40;;;18.50
71205;BMP180;58935;54.498;18.544;2023-08-01T06:37:03;98950.60;;;18.50
71205;BMP180;58935;54.498;18.544;2023-08-01T06:39:29;98944.00;;;18.50
71205;BMP180;58935;54.498;18.544;2023-08-01T06:41:55;98939.60;;;18.50
71205;BMP180;58935;54.498;18.544;2023-08-01T06:44:21;98938.80;;;18.50
71205;BMP180;58935;54.498;18.544;2023-08-01T06:46:46;98940.80;;;18.52
71205;BMP180;58935;54.498;18.544;2023-08-01T06:49:11;98935.80;;;18.50
71205;BMP180;58935;54.498;18.544;2023-08-01T06:51:37;98935.00;;;18.60
71205;BMP180;58935;54.498;18.544;2023-08-01T06:54:02;98926.20;;;18.60
71205;BMP180;58935;54.498;18.544;2023-08-01T06:56:27;98926.80;;;18.70
71205;BMP180;58935;54.498;18.544;2023-08-01T06:58:53;98931.00;;;18.70
71205;BMP180;58935;54.498;18.544;2023-08-01T07:01:18;98933.20;;;18.76
71205;BMP180;58935;54.498;18.544;2023-08-01T07:03:44;98929.60;;;18.80
71205;BMP180;58935;54.498;18.544;2023-08-01T07:06:10;98927.20;;;18.80
71205;BMP180;58935;54.498;18.544;2023-08-01T07:08:36;98931.80;;;18.74
71205;BMP180;58935;54.498;18.544;2023-08-01T07:11:01;98925.40;;;18.76
71205;BMP180;58935;54.498;18.544;2023-08-01T07:13:28;98926.60;;;18.72
71205;BMP180;58935;54.498;18.544;2023-08-01T07:15:53;98923.60;;;18.72
71205;BMP180;58935;54.498;18.544;2023-08-01T07:18:21;98921.80;;;18.80
71205;BMP180;58935;54.498;18.544;2023-08-01T07:20:46;98922.00;;;18.80
71205;BMP180;58935;54.498;18.544;2023-08-01T07:23:11;98919.80;;;18.80
71205;BMP180;58935;54.498;18.544;2023-08-01T07:25:36;98920.60;;;18.70
71205;BMP180;58935;54.498;18.544;2023-08-01T07:28:02;98916.20;;;18.70
71205;BMP180;58935;54.498;18.544;2023-08-01T07:30:28;98913.00;;;18.70
71205;BMP180;58935;54.498;18.544;2023-08-01T07:32:53;98903.60;;;18.70
71205;BMP180;58935;54.498;18.544;2023-08-01T07:35:18;98908.00;;;18.70
71205;BMP180;58935;54.498;18.544;2023-08-01T07:37:44;98902.80;;;18.76
71205;BMP180;58935;54.498;18.544;2023-08-01T07:40:09;98909.00;;;18.80
71205;BMP180;58935;54.498;18.544;2023-08-01T07:42:35;98897.20;;;18.80
71205;BMP180;58935;54.498;18.544;2023-08-01T07:45:00;98899.80;;;18.90
71205;BMP180;58935;54.498;18.544;2023-08-01T07:47:26;98891.20;;;18.90
71205;BMP180;58935;54.498;18.544;2023-08-01T07:49:52;98888.20;;;18.96
71205;BMP180;58935;54.498;18.544;2023-08-01T07:52:18;98887.20;;;19.00
71205;BMP180;58935;54.498;18.544;2023-08-01T07:54:43;98889.60;;;19.00
71205;BMP180;58935;54.498;18.544;2023-08-01T07:57:08;98890.40;;;19.04
71205;BMP180;58935;54.498;18.544;2023-08-01T07:59:34;98887.40;;;19.10
71205;BMP180;58935;54.498;18.544;2023-08-01T08:01:59;98886.40;;;19.10
71205;BMP180;58935;54.498;18.544;2023-08-01T08:04:25;98883.20;;;19.10
71205;BMP180;58935;54.498;18.544;2023-08-01T08:06:50;98884.40;;;19.10
71205;BMP180;58935;54.498;18.544;2023-08-01T08:09:17;98882.40;;;19.10
71205;BMP180;58935;54.498;18.544;2023-08-01T08:11:42;98882.80;;;19.10
71205;BMP180;58935;54.498;18.544;2023-08-01T08:14:08;98879.60;;;19.10
71205;BMP180;58935;54.498;18.544;2023-08-01T08:16:33;98874.20;;;19.00
71205;BMP180;58935;54.498;18.544;2023-08-01T08:18:59;98879.40;;;19.00
71205;BMP180;58935;54.498;18.544;2023-08-01T08:21:24;98874.60;;;18.90
71205;BMP180;58935;54.498;18.544;2023-08-01T08:23:50;98872.20;;;18.90
71205;BMP180;58935;54.498;18.544;2023-08-01T08:26:15;98874.20;;;18.90
71205;BMP180;58935;54.498;18.544;2023-08-01T08:28:41;98872.40;;;18.90
71205;BMP180;58935;54.498;18.544;2023-08-01T08:31:07;98879.20;;;18.88
71205;BMP180;58935;54.498;18.544;2023-08-01T08:33:33;98873.80;;;18.80
71205;BMP180;58935;54.498;18.544;2023-08-01T08:35:58;98879.20;;;18.80
71205;BMP180;58935;54.498;18.544;2023-08-01T08:38:24;98873.20;;;18.88
71205;BMP180;58935;54.498;18.544;2023-08-01T08:41:06;98879.00;;;18.90
71205;BMP180;58935;54.498;18.544;2023-08-01T08:43:34;98878.80;;;18.90
71205;BMP180;58935;54.498;18.544;2023-08-01T08:46:02;98873.40;;;19.00
71205;BMP180;58935;54.498;18.544;2023-08-01T08:48:28;98869.40;;;19.00
71205;BMP180;58935;54.498;18.544;2023-08-01T08:50:57;98868.20;;;19.10
71205;BMP180;58935;54.498;18.544;2023-08-01T08:53:24;98863.80;;;19.20
71205;BMP180;58935;54.498;18.544;2023-08-01T08:55:50;98863.00;;;19.30
71205;BMP180;58935;54.498;18.544;2023-08-01T08:58:16;98862.60;;;19.44
71205;BMP180;58935;54.498;18.544;2023-08-01T09:00:44;98859.80;;;19.50
71205;BMP180;58935;54.498;18.544;2023-08-01T09:03:10;98854.20;;;19.54
71205;BMP180;58935;54.498;18.544;2023-08-01T09:05:54;98857.00;;;19.60
71205;BMP180;58935;54.498;18.544;2023-08-01T09:08:27;98856.60;;;19.60
71205;BMP180;58935;54.498;18.544;2023-08-01T09:10:53;98853.20;;;19.60
71205;BMP180;58935;54.498;18.544;2023-08-01T09:13:18;98855.00;;;19.50
71205;BMP180;58935;54.498;18.544;2023-08-01T09:15:46;98848.20;;;19.50
71205;BMP180;58935;54.498;18.544;2023-08-01T09:18:11;98842.60;;;19.50
71205;BMP180;58935;54.498;18.544;2023-08-01T09:20:46;98839.20;;;19.42
71205;BMP180;58935;54.498;18.544;2023-08-01T09:23:12;98838.00;;;19.50
71205;BMP180;58935;54.498;18.544;2023-08-01T09:25:39;98836.00;;;19.50
71205;BMP180;58935;54.498;18.544;2023-08-01T09:28:19;98832.00;;;19.60
71205;BMP180;58935;54.498;18.544;2023-08-01T09:30:50;98829.80;;;19.70
71205;BMP180;58935;54.498;18.544;2023-08-01T09:33:17;98829.20;;;19.80
71205;BMP180;58935;54.498;18.544;2023-08-01T09:35:43;98830.80;;;19.90
71205;BMP180;58935;54.498;18.544;2023-08-01T09:38:13;98827.60;;;20.00
71205;BMP180;58935;54.498;18.544;2023-08-01T09:40:40;98824.80;;;20.00
71205;BMP180;58935;54.498;18.544;2023-08-01T09:43:06;98823.00;;;20.08
71205;BMP180;58935;54.498;18.544;2023-08-01T09:45:32;98817.80;;;20.10
71205;BMP180;58935;54.498;18.544;2023-08-01T09:47:59;98822.80;;;20.20
71205;BMP180;58935;54.498;18.544;2023-08-01T09:50:25;98818.80;;;20.30
71205;BMP180;58935;54.498;18.544;2023-08-01T09:52:51;98813.20;;;20.30
71205;BMP180;58935;54.498;18.544;2023-08-01T09:55:33;98820.20;;;20.40
71205;BMP180;58935;54.498;18.544;2023-08-01T09:57:59;98813.20;;;20.40
71205;BMP180;58935;54.498;18.544;2023-08-01T10:00:29;98816.20;;;20.40
71205;BMP180;58935;54.498;18.544;2023-08-01T10:02:59;98821.00;;;20.40
71205;BMP180;58935;54.498;18.544;2023-08-01T10:05:30;98814.60;;;20.30
71205;BMP180;58935;54.498;18.544;2023-08-01T10:07:59;98810.20;;;20.20
71205;BMP180;58935;54.498;18.544;2023-08-01T10:10:27;98804.80;;;20.10
71205;BMP180;58935;54.498;18.544;2023-08-01T10:12:56;98807.40;;;20.02
71205;BMP180;58935;54.498;18.544;2023-08-01T10:15:24;98807.60;;;20.00
71205;BMP180;58935;54.498;18.544;2023-08-01T10:17:50;98804.80;;;19.90
71205;BMP180;58935;54.498;18.544;2023-08-01T10:20:16;98807.20;;;19.88
71205;BMP180;58935;54.498;18.544;2023-08-01T10:22:44;98809.40;;;19.80
71205;BMP180;58935;54.498;18.544;2023-08-01T10:25:11;98800.20;;;19.80
71205;BMP180;58935;54.498;18.544;2023-08-01T10:27:36;98805.00;;;19.70
71205;BMP180;58935;54.498;18.544;2023-08-01T10:30:04;98805.60;;;19.60
71205;BMP180;58935;54.498;18.544;2023-08-01T10:32:34;98800.00;;;19.50
71205;BMP180;58935;54.498;18.544;2023-08-01T10:35:02;98799.40;;;19.50
71205;BMP180;58935;54.498;18.544;2023-08-01T10:37:45;98802.80;;;19.40
71205;BMP180;58935;54.498;18.544;2023-08-01T10:40:12;98797.40;;;19.32
71205;BMP180;58935;54.498;18.544;2023-08-01T10:42:40;98797.60;;;19.30
71205;BMP180;58935;54.498;18.544;2023-08-01T10:45:16;98795.20;;;19.30
71205;BMP180;58935;54.498;18.544;2023-08-01T10:47:44;98786.60;;;19.30
71205;BMP180;58935;54.498;18.544;2023-08-01T10:50:15;98791.60;;;19.30
71205;BMP180;58935;54.498;18.544;2023-08-01T10:52:42;98786.60;;;19.40
71205;BMP180;58935;54.498;18.544;2023-08-01T10:55:08;98778.80;;;19.42
71205;BMP180;58935;54.498;18.544;2023-08-01T10:57:37;98781.80;;;19.50
71205;BMP180;58935;54.498;18.544;2023-08-01T11:00:04;98777.00;;;19.50
71205;BMP180;58935;54.498;18.544;2023-08-01T11:02:34;98782.80;;;19.60
71205;BMP180;58935;54.498;18.544;2023-08-01T11:05:06;98784.80;;;19.60
71205;BMP180;58935;54.498;18.544;2023-08-01T11:07:34;98781.40;;;19.66
71205;BMP180;58935;54.498;18.544;2023-08-01T11:10:13;98777.80;;;19.70
71205;BMP180;58935;54.498;18.544;2023-08-01T11:12:41;98782.00;;;19.70
71205;BMP180;58935;54.498;18.544;2023-08-01T11:15:10;98777.60;;;19.70
71205;BMP180;58935;54.498;18.544;2023-08-01T11:17:41;98769.80;;;19.70
71205;BMP180;58935;54.498;18.544;2023-08-01T11:20:09;98771.00;;;19.70
71205;BMP180;58935;54.498;18.544;2023-08-01T11:22:37;98765.20;;;19.70
71205;BMP180;58935;54.498;18.544;2023-08-01T11:25:04;98768.60;;;19.80
71205;BMP180;58935;54.498;18.544;2023-08-01T11:27:30;98768.40;;;19.80
71205;BMP180;58935;54.498;18.544;2023-08-01T11:29:56;98764.00;;;19.80
71205;BMP180;58935;54.498;18.544;2023-08-01T11:32:36;98768.00;;;19.80
71205;BMP180;58935;54.498;18.544;2023-08-01T11:35:03;98766.60;;;19.80
71205;BMP180;58935;54.498;18.544;2023-08-01T11:37:30;98764.60;;;19.80
71205;BMP180;58935;54.498;18.544;2023-08-01T11:39:57;98760.60;;;19.88
71205;BMP180;58935;54.498;18.544;2023-08-01T11:42:23;98762.20;;;19.86
71205;BMP180;58935;54.498;18.544;2023-08-01T11:44:49;98764.60;;;19.90
71205;BMP180;58935;54.498;18.544;2023-08-01T11:47:16;98758.40;;;19.90
71205;BMP180;58935;54.498;18.544;2023-08-01T11:49:48;98760.60;;;19.90
71205;BMP180;58935;54.498;18.544;2023-08-01T11:52:28;98759.60;;;19.86
71205;BMP180;58935;54.498;18.544;2023-08-01T11:54:54;98763.40;;;19.82
71205;BMP180;58935;54.498;18.544;2023-08-01T11:57:23;98757.20;;;19.90
71205;BMP180;58935;54.498;18.544;2023-08-01T11:59:52;98758.00;;;19.98
71205;BMP180;58935;54.498;18.544;2023-08-01T12:02:28;98754.00;;;20.00
71205;BMP180;58935;54.498;18.544;2023-08-01T12:04:55;98758.00;;;20.00
71205;BMP180;58935;54.498;18.544;2023-08-01T12:07:21;98759.20;;;19.90
71205;BMP180;58935;54.498;18.544;2023-08-01T12:09:59;98756.00;;;19.90
71205;BMP180;58935;54.498;18.544;2023-08-01T12:12:29;98746.60;;;19.90
71205;BMP180;58935;54.498;18.544;2023-08-01T12:14:55;98748.80;;;19.80
71205;BMP180;58935;54.498;18.544;2023-08-01T12:17:22;98748.60;;;19.80
71205;BMP180;58935;54.498;18.544;2023-08-01T12:19:48;98743.40;;;19.70
71205;BMP180;58935;54.498;18.544;2023-08-01T12:22:13;98739.40;;;19.70
71205;BMP180;58935;54.498;18.544;2023-08-01T12:24:40;98739.20;;;19.70
71205;BMP180;58935;54.498;18.544;2023-08-01T12:27:08;98742.20;;;19.64
71205;BMP180;58935;54.498;18.544;2023-08-01T12:29:33;98741.20;;;19.68
71205;BMP180;58935;54.498;18.544;2023-08-01T12:31:59;98736.40;;;19.70
71205;BMP180;58935;54.498;18.544;2023-08-01T12:34:25;98734.40;;;19.70
71205;BMP180;58935;54.498;18.544;2023-08-01T12:36:50;98737.00;;;19.80
71205;BMP180;58935;54.498;18.544;2023-08-01T12:39:17;98732.60;;;19.70
71205;BMP180;58935;54.498;18.544;2023-08-01T12:41:43;98732.80;;;19.70
71205;BMP180;58935;54.498;18.544;2023-08-01T12:44:08;98731.20;;;19.70
71205;BMP180;58935;54.498;18.544;2023-08-01T12:46:33;98732.60;;;19.70
71205;BMP180;58935;54.498;18.544;2023-08-01T12:48:59;98726.20;;;19.70
71205;BMP180;58935;54.498;18.544;2023-08-01T12:51:24;98720.80;;;19.78
71205;BMP180;58935;54.498;18.544;2023-08-01T12:53:50;98728.60;;;19.88
71205;BMP180;58935;54.498;18.544;2023-08-01T12:56:15;98725.40;;;20.00
71205;BMP180;58935;54.498;18.544;2023-08-01T12:58:41;98726.80;;;20.10
71205;BMP180;58935;54.498;18.544;2023-08-01T13:01:07;98726.20;;;20.20
71205;BMP180;58935;54.498;18.544;2023-08-01T13:03:32;98720.40;;;20.34
71205;BMP180;58935;54.498;18.544;2023-08-01T13:05:58;98721.80;;;20.50
71205;BMP180;58935;54.498;18.544;2023-08-01T13:08:24;98722.20;;;20.58
71205;BMP180;58935;54.498;18.544;2023-08-01T13:10:49;98719.00;;;20.60
71205;BMP180;58935;54.498;18.544;2023-08-01T13:13:16;98724.80;;;20.70
71205;BMP180;58935;54.498;18.544;2023-08-01T13:15:42;98720.80;;;20.70
71205;BMP180;58935;54.498;18.544;2023-08-01T13:18:10;98724.00;;;20.70
71205;BMP180;58935;54.498;18.544;2023-08-01T13:20:36;98717.80;;;20.70
71205;BMP180;58935;54.498;18.544;2023-08-01T13:23:02;98715.80;;;20.60
71205;BMP180;58935;54.498;18.544;2023-08-01T13:25:28;98708.60;;;20.50
71205;BMP180;58935;54.498;18.544;2023-08-01T13:27:53;98710.00;;;20.40
71205;BMP180;58935;54.498;18.544;2023-08-01T13:30:19;98713.40;;;20.30
71205;BMP180;58935;54.498;18.544;2023-08-01T13:32:45;98709.20;;;20.12
71205;BMP180;58935;54.498;18.544;2023-08-01T13:35:11;98715.60;;;20.00
71205;BMP180;58935;54.498;18.544;2023-08-01T13:37:36;98715.80;;;19.90
71205;BMP180;58935;54.498;18.544;2023-08-01T13:40:03;98714.60;;;19.80
71205;BMP180;58935;54.498;18.544;2023-08-01T13:42:28;98708.00;;;19.70
71205;BMP180;58935;54.498;18.544;2023-08-01T13:44:54;98705.80;;;19.60
71205;BMP180;58935;54.498;18.544;2023-08-01T13:47:20;98706.80;;;19.50
71205;BMP180;58935;54.498;18.544;2023-08-01T13:49:45;98697.60;;;19.46
71205;BMP180;58935;54.498;18.544;2023-08-01T13:52:11;98696.40;;;19.40
71205;BMP180;58935;54.498;18.544;2023-08-01T13:54:36;98689.40;;;19.30
71205;BMP180;58935;54.498;18.544;2023-08-01T13:57:01;98684.20;;;19.20